Latest Weather Observations for Wagga Wagga

IDN60801

Issued at 3:02 pm EST Tuesday 19 June 2018 (issued every 10 minutes, with the page automatically refreshed every 10 minutes)

About weather observations | Map of weather stations | Latest weather observations for NSW | Other Formats
Station Details ID: 072150 Name: WAGGA WAGGA AMO Lat: -35.16 Lon: 147.46 Height: 212.0 m
Data from the previous 72 hours. | See also: Recent months at Wagga Wagga
Date/Time
EST
Temp
°C
App
Temp
°C
Dew
Point
°C
Rel
Hum
%
Delta-T
°C
Wind Press
QNH
hPa
Press
MSL
hPa
Rain since
9am
mm
Dir  Spd
km/h
Gust
km/h
Spd
kts
Gust
kts
19/03:00pm 14.3 12.4 2.9 46 5.1 WSW 2 0 1 0 1025.7 1026.1 0.2
19/02:30pm 13.9 11.1 2.2 45 5.2 S 6 7 3 4 1025.4 1025.8 0.2
19/02:00pm 13.9 11.2 2.8 47 5.0 S 6 11 3 6 1025.6 1026.0 0.2
19/01:30pm 13.8 10.8 4.1 52 4.5 ESE 9 13 5 7 1025.6 1026.0 0.2
19/01:00pm 13.2 9.0 3.6 52 4.3 SE 15 19 8 10 1026.0 1026.4 0.2
19/12:30pm 12.7 8.6 4.4 57 3.8 SE 15 19 8 10 1026.4 1026.8 0.2
19/12:00pm 12.1 8.3 3.9 57 3.7 SSE 13 17 7 9 1026.8 1027.2 0.2
19/11:30am 11.8 8.5 4.5 61 3.3 SE 11 17 6 9 1027.4 1027.8 0.2
19/11:00am 10.5 9.4 5.1 69 2.5 CALM 0 2 0 1 1027.7 1028.1 0.2
19/10:30am 8.4 5.8 4.2 75 1.9 WNW 7 11 4 6 1028.0 1028.4 0.2
19/10:00am 7.8 6.1 3.8 76 1.7 NNW 2 6 1 3 1028.0 1028.4 0.2
19/09:30am 6.9 5.1 3.7 80 1.4 N 2 7 1 4 1027.7 1028.1 0.2
19/09:00am 4.5 3.0 3.2 91 0.5 CALM 0 6 0 3 1027.3 1027.7 0.0
19/08:30am 3.2 1.2 2.5 95 0.3 NW 2 9 1 5 1026.9 1027.3 0.0
19/08:00am 1.6 -1.9 1.5 99 0.0 ESE 9 11 5 6 1026.6 1027.0 0.0
19/07:30am 0.0 -3.3 -0.1 99 0.0 NNW 7 9 4 5 1026.3 1026.7 0.0
19/07:00am 1.2 -2.8 0.8 97 0.1 ENE 11 15 6 8 1025.9 1026.3 0.0
19/06:30am 1.7 -1.7 1.6 99 0.0 ENE 9 9 5 5 1025.6 1026.0 0.0
19/06:00am 1.1 -0.7 1.0 99 0.0 CALM 0 9 0 5 1025.3 1025.7 0.0
19/05:30am 1.9 0.2 1.8 99 0.0 CALM 0 0 0 0 1025.1 1025.5 0.0
19/05:00am 1.5 -1.4 1.4 99 0.0 NE 6 9 3 5 1024.7 1025.0 0.0
19/04:30am 1.8 0.0 1.5 98 0.1 CALM 0 6 0 3 1024.7 1025.0 0.0
19/04:00am 1.8 -0.7 1.4 97 0.2 ESE 4 9 2 5 1024.5 1024.8 0.0
19/03:30am 2.2 -0.9 1.5 95 0.3 E 7 9 4 5 1024.7 1025.0 0.0
19/03:00am 2.5 0.9 2.4 99 0.0 CALM 0 2 0 1 1024.7 1025.0 0.0
19/02:30am 2.9 1.3 2.6 98 0.1 CALM 0 0 0 0 1024.6 1024.9 0.0
19/02:00am 3.4 1.5 2.8 96 0.2 SSW 2 6 1 3 1024.3 1024.6 0.0
19/01:30am 3.1 0.4 0.0 80 1.2 NW 4 7 2 4 1024.4 1024.7 0.0
19/01:00am 5.9 3.9 2.5 79 1.4 SSE 2 9 1 5 1024.2 1024.5 0.0
19/12:30am 6.1 3.3 3.4 83 1.1 SSW 7 9 4 5 1024.1 1024.4 0.0
19/12:00am 5.6 3.2 4.2 91 0.6 E 6 9 3 5 1024.3 1024.6 0.0
 
Date/Time
EST
Temp
°C
App
Temp
°C
Dew
Point
°C
Rel
Hum
%
Delta-T
°C
Wind Press
QNH
hPa
Press
MSL
hPa
Rain since
9am
mm
Dir  Spd
km/h
Gust
km/h
Spd
kts
Gust
kts
18/11:30pm 5.1 1.7 3.9 92 0.5 S 11 13 6 7 1024.1 1024.4 0.0
18/11:00pm 4.2 -0.5 3.3 94 0.4 SSW 17 19 9 10 1023.8 1024.2 0.0
18/10:30pm 4.7 0.5 3.8 94 0.4 S 15 17 8 9 1023.8 1024.2 0.0
18/10:00pm 4.8 1.4 3.9 94 0.4 SSW 11 15 6 8 1023.4 1023.8 0.0
18/09:30pm 6.1 5.0 4.9 92 0.5 CALM 0 6 0 3 1023.4 1023.8 0.0
18/09:00pm 6.6 3.4 4.9 89 0.7 SSW 11 11 6 6 1023.4 1023.8 0.0
18/08:30pm 6.1 2.3 3.9 86 0.9 SSW 13 15 7 8 1023.3 1023.7 0.0
18/08:00pm 6.8 4.3 5.0 88 0.8 SSW 7 9 4 5 1023.2 1023.6 0.0
18/07:30pm 7.2 3.6 5.2 87 0.9 SW 13 15 7 8 1023.2 1023.6 0.0
18/07:00pm 8.0 4.5 5.3 83 1.2 SW 13 15 7 8 1022.7 1023.1 0.0
18/06:30pm 9.0 5.6 5.7 80 1.5 WSW 13 15 7 8 1022.7 1023.1 0.0
18/06:00pm 8.8 6.5 5.5 80 1.5 SSW 7 9 4 5 1022.6 1023.0 0.0
18/05:30pm 9.9 5.7 5.5 74 2.0 WSW 17 19 9 10 1022.5 1022.9 0.0
18/05:00pm 10.7 7.2 5.3 69 2.5 SW 13 17 7 9 1022.2 1022.6 0.0
18/04:30pm 12.1 7.2 5.3 63 3.2 SSW 20 28 11 15 1021.9 1022.3 0.0
18/04:00pm 13.0 8.3 5.9 62 3.4 SW 20 26 11 14 1021.9 1022.3 0.0
18/03:30pm 13.4 8.8 6.3 62 3.4 SW 20 28 11 15 1021.8 1022.2 0.0
18/03:00pm 13.7 9.0 6.1 60 3.6 SW 20 30 11 16 1022.1 1022.5 0.0
18/02:30pm 13.8 9.0 5.7 58 3.9 SSW 20 30 11 16 1021.8 1022.2 0.0
18/02:00pm 13.8 9.6 5.9 59 3.8 WSW 17 26 9 14 1021.7 1022.1 0.0
18/01:30pm 14.0 8.9 6.1 59 3.8 SW 22 32 12 17 1021.8 1022.2 0.0
18/01:00pm 13.5 8.5 4.6 55 4.1 SSW 20 32 11 17 1021.7 1022.1 0.0
18/12:30pm 13.2 7.6 5.4 59 3.7 SW 24 30 13 16 1022.0 1022.4 0.0
18/12:00pm 12.8 8.0 5.5 61 3.4 SSW 20 28 11 15 1022.0 1022.4 0.0
18/11:30am 12.2 7.4 5.6 64 3.1 SSW 20 28 11 15 1022.3 1022.7 0.0
18/11:00am 11.3 7.6 6.4 72 2.3 SSW 15 22 8 12 1022.3 1022.7 0.0
18/10:30am 10.6 7.9 7.3 80 1.6 SSW 11 19 6 10 1022.2 1022.6 0.0
18/10:00am 9.2 5.9 6.5 83 1.3 SW 13 17 7 9 1022.1 1022.5 0.0
18/09:30am 7.9 6.6 7.8 99 0.0 NNW 4 7 2 4 1021.9 1022.3 0.0
18/09:00am 5.7 4.7 5.6 99 0.0 CALM 0 0 0 0 1021.5 1021.9 4.0
18/08:30am 5.5 4.5 5.4 99 0.0 CALM 0 2 0 1 1021.1 1021.4 4.0
18/08:00am 5.3 3.5 5.2 99 0.0 ENE 4 9 2 5 1021.1 1021.4 4.0
18/07:30am 4.4 1.8 4.3 99 0.0 NNW 7 9 4 5 1020.6 1020.9 4.0
18/07:00am 4.1 2.8 4.0 99 0.0 CALM 0 0 0 0 1020.4 1020.7 4.0
18/06:30am 4.7 3.5 4.6 99 0.0 CALM 0 0 0 0 1020.3 1020.6 4.0
18/06:00am 4.8 2.9 4.7 99 0.0 WSW 4 11 2 6 1019.9 1020.2 4.0
18/05:30am 5.5 1.6 5.4 99 0.0 WSW 15 19 8 10 1019.9 1020.2 4.0
18/05:00am 5.1 2.6 5.0 99 0.0 W 7 9 4 5 1019.7 1020.0 4.0
18/04:30am 5.7 2.6 5.6 99 0.0 W 11 17 6 9 1019.8 1020.1 3.8
18/04:00am 5.8 2.4 5.7 99 0.0 WSW 13 15 7 8 1019.6 1019.9 3.8
18/03:30am 5.9 2.5 5.8 99 0.0 W 13 15 7 8 1019.2 1019.5 3.8
18/03:00am 5.6 2.4 5.0 96 0.3 W 11 15 6 8 1019.1 1019.4 3.8
18/02:30am 6.0 3.4 5.9 99 0.0 W 9 11 5 6 1019.1 1019.4 3.8
18/02:00am 6.0 3.7 5.9 99 0.0 W 7 9 4 5 1018.8 1019.2 3.8
18/01:30am 6.4 3.4 6.0 97 0.2 SW 11 22 6 12 1018.3 1018.7 3.8
18/01:13am 6.7 3.8 6.3 97 0.2 WSW 11 17 6 9 1018.2 1018.6 3.8
18/01:00am 6.8 3.9 6.4 97 0.2 W 11 15 6 8 1018.1 1018.5 3.8
18/12:43am 6.9 4.8 6.5 97 0.2 WNW 7 13 4 7 1018.1 1018.5 3.8
18/12:30am 6.7 4.5 6.1 96 0.3 SW 7 11 4 6 1017.9 1018.3 3.8
18/12:00am 7.2 4.3 6.6 96 0.3 SW 11 13 6 7 1017.8 1018.2 3.8
 
Date/Time
EST
Temp
°C
App
Temp
°C
Dew
Point
°C
Rel
Hum
%
Delta-T
°C
Wind Press
QNH
hPa
Press
MSL
hPa
Rain since
9am
mm
Dir  Spd
km/h
Gust
km/h
Spd
kts
Gust
kts
17/11:30pm 7.6 4.0 6.9 95 0.3 WSW 15 20 8 11 1017.3 1017.7 3.8
17/11:00pm 7.8 3.8 6.7 93 0.5 SW 17 22 9 12 1017.5 1017.9 3.8
17/10:30pm 8.0 3.1 6.8 92 0.6 SW 22 35 12 19 1017.4 1017.8 3.8
17/10:28pm 8.1 3.8 6.9 92 0.6 SW 19 30 10 16 1017.4 1017.8 3.8
17/10:00pm 8.3 4.4 7.2 93 0.5 SW 17 20 9 11 1017.0 1017.3 3.8
17/09:30pm 8.5 4.1 7.3 92 0.6 SW 20 28 11 15 1016.7 1017.0 3.8
17/09:00pm 8.7 3.2 7.5 92 0.6 SW 26 33 14 18 1016.6 1016.9 3.8
17/08:30pm 9.0 3.9 7.6 91 0.7 SW 24 33 13 18 1016.3 1016.6 3.8
17/08:00pm 9.0 4.3 7.6 91 0.7 WSW 22 30 12 16 1016.1 1016.4 3.8
17/07:30pm 9.0 5.0 8.1 94 0.4 WSW 19 26 10 14 1015.9 1016.2 3.8
17/07:00pm 8.9 5.3 8.3 96 0.3 WSW 17 24 9 13 1015.4 1015.7 3.8
17/06:46pm 8.7 4.8 8.6 99 0.0 W 19 22 10 12 1015.4 1015.7 3.8
17/06:30pm 8.7 5.1 8.4 98 0.1 WSW 17 22 9 12 1015.3 1015.6 3.8
17/06:00pm 8.7 4.7 8.3 97 0.2 W 19 24 10 13 1014.8 1015.1 3.8
17/05:30pm 8.6 4.5 8.5 99 0.0 W 20 28 11 15 1014.7 1015.0 3.8
17/05:03pm 8.5 3.2 8.4 99 0.0 W 26 30 14 16 1014.4 1014.7 3.8
17/05:00pm 8.5 3.6 8.4 99 0.0 W 24 30 13 16 1014.4 1014.7 3.8
17/04:49pm 8.6 4.1 8.5 99 0.0 W 22 30 12 16 1014.4 1014.7 3.8
17/04:30pm 8.5 3.6 8.4 99 0.0 W 24 32 13 17 1014.3 1014.6 3.8
17/04:00pm 8.5 3.2 8.4 99 0.0 W 26 35 14 19 1013.9 1014.3 3.8
17/03:51pm 8.5 3.2 8.4 99 0.0 W 26 35 14 19 1013.9 1014.3 3.8
17/03:41pm 8.5 3.6 8.4 99 0.0 W 24 35 13 19 1013.8 1014.2 3.8
17/03:30pm 8.3 2.9 8.2 99 0.0 W 26 37 14 20 1013.7 1014.1 3.8
17/03:00pm 8.0 3.3 7.9 99 0.0 W 22 33 12 18 1013.5 1013.9 3.4
17/02:45pm 8.0 3.0 7.9 99 0.0 W 24 41 13 22 1013.5 1013.9 3.4
17/02:39pm 7.8 4.0 7.7 99 0.0 W 17 26 9 14 1013.6 1014.0 3.4
17/02:30pm 7.6 4.2 7.5 99 0.0 W 15 20 8 11 1013.5 1013.9 3.2
17/02:25pm 7.5 3.7 7.4 99 0.0 WNW 17 20 9 11 1013.5 1013.9 3.0
17/02:17pm 7.4 3.2 7.3 99 0.0 WNW 19 22 10 12 1013.4 1013.8 2.6
17/02:00pm 7.2 3.3 7.1 99 0.0 WNW 17 22 9 12 1013.5 1013.9 2.0
17/01:42pm 7.0 2.7 6.9 99 0.0 NW 19 26 10 14 1013.6 1014.0 1.4
17/01:37pm 7.0 2.5 6.9 99 0.0 NW 20 28 11 15 1013.5 1013.9 1.4
17/01:30pm 6.9 2.4 6.8 99 0.0 WNW 20 26 11 14 1013.6 1014.0 1.4
17/01:16pm 6.6 1.2 6.5 99 0.0 WNW 24 30 13 16 1013.9 1014.3 1.2
17/01:00pm 6.3 1.2 6.2 99 0.0 WNW 22 28 12 15 1014.0 1014.4 1.0
17/12:59pm 6.3 1.2 6.2 99 0.0 WNW 22 30 12 16 1014.0 1014.4 1.0
17/12:30pm 6.1 1.0 6.0 99 0.0 WNW 22 30 12 16 1014.5 1014.8 0.6
17/12:00pm 5.8 0.3 5.7 99 0.0 WNW 24 33 13 18 1014.9 1015.2 0.6
17/11:30am 5.7 -1.0 5.6 99 0.0 W 30 37 16 20 1015.4 1015.7 0.6
17/11:07am 6.0 -0.6 5.9 99 0.0 W 30 37 16 20 1015.4 1015.7 0.4
17/11:00am 5.8 -0.9 5.5 98 0.1 W 30 39 16 21 1015.4 1015.7 0.4
17/10:30am 5.6 -1.5 5.5 99 0.0 W 32 39 17 21 1015.6 1015.9 0.2
17/10:00am 5.7 -0.6 5.6 99 0.0 W 28 37 15 20 1015.3 1015.6 0.2
17/09:30am 5.3 -0.3 5.2 99 0.0 W 24 30 13 16 1015.4 1015.7 0.2
17/09:00am 5.3 -0.3 5.2 99 0.0 WNW 24 30 13 16 1015.2 1015.5 5.0
17/08:30am 5.0 0.2 4.9 99 0.0 WNW 19 26 10 14 1014.9 1015.2 4.8
17/08:03am 4.9 0.1 4.8 99 0.0 WNW 19 26 10 14 1014.6 1014.9 4.8
17/08:00am 4.8 0.0 4.7 99 0.0 WNW 19 26 10 14 1014.6 1014.9 4.8
17/07:30am 4.7 0.3 4.6 99 0.0 WNW 17 24 9 13 1014.6 1014.9 4.8
17/07:06am 4.5 -0.5 4.4 99 0.0 WNW 20 30 11 16 1014.7 1015.0 4.8
17/07:00am 4.5 -0.9 4.4 99 0.0 WNW 22 28 12 15 1014.7 1015.0 4.8
17/06:30am 4.7 -1.8 4.6 99 0.0 W 28 33 15 18 1014.8 1015.1 4.8
17/06:00am 5.0 -0.4 4.7 98 0.1 W 22 32 12 17 1014.5 1014.8 4.8
17/05:30am 5.2 -0.5 4.9 98 0.1 W 24 33 13 18 1014.3 1014.6 4.8
17/05:00am 5.2 0.3 5.1 99 0.0 W 20 32 11 17 1014.3 1014.6 4.8
17/04:30am 5.5 -0.5 5.2 98 0.1 W 26 33 14 18 1014.5 1014.8 4.8
17/04:00am 5.6 0.3 5.0 96 0.3 W 22 32 12 17 1014.6 1014.9 4.8
17/03:30am 5.7 1.0 5.3 97 0.2 W 19 22 10 12 1014.7 1015.0 4.6
17/03:00am 5.3 1.7 5.2 99 0.0 WNW 13 17 7 9 1014.7 1015.0 4.6
17/02:54am 5.3 1.7 5.2 99 0.0 WNW 13 15 7 8 1014.8 1015.1 4.6
17/02:30am 5.1 1.9 5.0 99 0.0 WNW 11 11 6 6 1014.8 1015.1 4.6
17/02:19am 5.0 1.4 4.9 99 0.0 WNW 13 15 7 8 1014.8 1015.1 4.6
17/02:00am 5.2 1.6 5.1 99 0.0 NW 13 15 7 8 1014.9 1015.2 4.6
17/01:30am 5.3 2.1 5.2 99 0.0 NW 11 15 6 8 1014.9 1015.2 4.6
17/01:00am 5.2 1.6 5.1 99 0.0 WNW 13 17 7 9 1014.8 1015.1 4.6
17/12:30am 5.4 2.2 5.3 99 0.0 WNW 11 15 6 8 1015.1 1015.4 4.6
17/12:00am 5.6 2.9 5.5 99 0.0 NW 9 11 5 6 1015.2 1015.5 4.6
 
Date/Time
EST
Temp
°C
App
Temp
°C
Dew
Point
°C
Rel
Hum
%
Delta-T
°C
Wind Press
QNH
hPa
Press
MSL
hPa
Rain since
9am
mm
Dir  Spd
km/h
Gust
km/h
Spd
kts
Gust
kts
16/11:57pm 5.6 2.9 5.5 99 0.0 NW 9 11 5 6 1015.2 1015.5 4.6
16/11:30pm 5.7 3.0 5.6 99 0.0 NW 9 11 5 6 1015.3 1015.6 4.6
16/11:00pm 5.7 3.0 5.6 99 0.0 NW 9 13 5 7 1015.5 1015.8 4.6
16/10:44pm 5.9 3.2 5.6 98 0.1 NW 9 13 5 7 1015.5 1015.8 4.6
16/10:30pm 6.2 2.8 5.8 97 0.2 WNW 13 15 7 8 1015.5 1015.8 4.6
16/10:00pm 6.7 3.4 6.3 97 0.2 WNW 13 15 7 8 1015.6 1015.9 4.6
16/09:30pm 6.7 2.6 6.3 97 0.2 W 17 26 9 14 1015.7 1016.0 4.6
16/09:17pm 6.7 3.0 6.1 96 0.3 W 15 19 8 10 1015.7 1016.0 4.6
16/09:00pm 6.8 2.6 5.7 93 0.5 W 17 22 9 12 1015.6 1015.9 4.6
16/08:30pm 6.9 3.6 6.3 96 0.3 WNW 13 17 7 9 1015.5 1015.8 4.6
16/08:00pm 6.9 3.6 6.5 97 0.2 W 13 15 7 8 1015.4 1015.7 4.6
16/07:30pm 6.9 3.6 6.6 98 0.1 W 13 17 7 9 1015.3 1015.6 4.6
16/07:05pm 6.9 2.8 6.3 96 0.3 W 17 20 9 11 1014.9 1015.2 4.6
16/07:00pm 6.9 2.9 6.5 97 0.2 W 17 28 9 15 1014.8 1015.1 4.6
16/06:54pm 6.7 2.3 6.4 98 0.1 W 19 28 10 15 1014.7 1015.0 4.6
16/06:35pm 7.0 3.8 6.9 99 0.0 WSW 13 17 7 9 1014.5 1014.8 4.6
16/06:30pm 7.1 4.3 7.0 99 0.0 WSW 11 15 6 8 1014.3 1014.6 4.2
16/06:00pm 7.0 2.9 6.4 96 0.3 NW 17 20 9 11 1014.0 1014.4 4.0
16/05:59pm 6.9 2.9 6.5 97 0.2 NW 17 20 9 11 1014.0 1014.4 4.0
16/05:30pm 6.8 2.3 6.1 95 0.3 NW 19 24 10 13 1013.7 1014.1 4.0
16/05:00pm 6.9 3.1 5.8 93 0.5 NW 15 17 8 9 1013.8 1014.2 4.0
16/04:38pm 6.9 2.7 5.8 93 0.5 WNW 17 20 9 11 1013.8 1014.2 4.0
16/04:30pm 6.8 2.6 5.7 93 0.5 W 17 24 9 13 1013.9 1014.3 4.0
16/04:12pm 6.1 -1.2 4.6 90 0.7 WSW 32 44 17 24 1014.2 1014.5 2.6
16/04:00pm 8.1 2.6 5.9 86 1.0 WNW 24 30 13 16 1013.8 1014.2 1.6
16/03:30pm 8.9 4.0 5.3 78 1.6 WNW 20 32 11 17 1013.3 1013.7 0.6

Other Formats:

Comma delimited format used in spreadsheet applications
http://www.bom.gov.au/fwo/IDN60801/IDN60801.94910.axf

JavaScript Object Notation format (JSON) in row-major order
http://www.bom.gov.au/fwo/IDN60801/IDN60801.94910.json